Time;durP1;ratioP1;P1;durP2;ratioP2;P2;SDS_P1;SDS_P2;PMS_P1;PMS_P2;Temp;Humidity;BMP_temperature;BMP_pressure;BME280_temperature;BME280_humidity;BME280_pressure;Samples;Min_cycle;Max_cycle;Signal;HPM_P1;HPM_P2
2022/03/21 00:01:01;;;;;;;55.97;26.75;;;2.60;59.40;;;;;;5018432;28;20018;-53
2022/03/21 00:03:28;;;;;;;57.05;25.77;;;2.60;59.40;;;;;;5012511;28;20049;-52
2022/03/21 00:05:54;;;;;;;;;;;2.50;59.30;;;;;;5019299;28;20550;-54
2022/03/21 00:08:22;;;;;;;53.88;25.80;;;2.60;59.20;;;;;;5018494;28;19905;-54
2022/03/21 00:10:49;;;;;;;53.30;25.70;;;2.50;59.30;;;;;;5017530;28;20061;-52
2022/03/21 00:13:15;;;;;;;57.45;25.73;;;2.50;59.80;;;;;;5017104;28;20017;-56
2022/03/21 00:15:46;;;;;;;54.20;25.20;;;2.50;60.30;;;;;;5018911;28;20117;-52
2022/03/21 00:18:13;;;;;;;56.00;25.90;;;2.50;59.90;;;;;;5017937;28;20111;-52
2022/03/21 00:20:44;;;;;;;52.42;26.98;;;2.40;59.60;;;;;;5017028;28;20025;-52
2022/03/21 00:23:10;;;;;;;54.20;25.98;;;2.50;59.90;;;;;;5018283;28;20029;-54
2022/03/21 00:25:37;;;;;;;61.80;28.63;;;2.50;60.50;;;;;;5018410;28;20500;-52
2022/03/21 00:28:07;;;;;;;63.97;28.10;;;2.40;61.30;;;;;;5017778;28;20084;-53
2022/03/21 00:30:35;;;;;;;56.13;24.58;;;2.10;61.10;;;;;;5019433;28;20092;-53
2022/03/21 00:33:01;;;;;;;54.90;25.88;;;2.20;60.50;;;;;;5017397;28;20560;-54
2022/03/21 00:35:28;;;;;;;49.53;25.80;;;2.40;60.20;;;;;;5018993;28;20033;-53
2022/03/21 00:37:54;;;;;;;54.85;27.15;;;2.40;60.00;;;;;;5019104;28;20538;-53
2022/03/21 00:40:20;;;;;;;63.60;27.80;;;2.40;60.90;;;;;;5018681;28;20728;-52
2022/03/21 00:42:48;;;;;;;59.30;27.70;;;2.30;62.00;;;;;;5016966;28;20028;-52
2022/03/21 00:45:19;;;;;;;72.93;32.85;;;2.30;63.30;;;;;;5018270;28;20045;-52
2022/03/21 00:47:46;;;;;;;67.75;32.70;;;2.30;63.00;;;;;;5018794;28;20033;-52
2022/03/21 00:50:13;;;;;;;;;;;2.20;63.00;;;;;;5017706;28;20052;-55
2022/03/21 00:52:39;;;;;;;56.97;28.15;;;2.10;63.40;;;;;;5017496;28;20387;-52
2022/03/21 00:55:06;;;;;;;62.92;29.33;;;1.90;64.80;;;;;;5018502;28;20045;-53
2022/03/21 00:57:33;;;;;;;54.20;26.37;;;2.00;64.40;;;;;;5017710;28;20033;-53
2022/03/21 00:59:58;;;;;;;53.20;27.75;;;1.90;65.20;;;;;;5018075;28;20324;-54
2022/03/21 01:02:24;;;;;;;59.90;27.08;;;1.90;65.20;;;;;;5016757;28;21431;-53
2022/03/21 01:04:50;;;;;;;58.55;28.33;;;1.70;66.50;;;;;;5016489;28;20481;-52
2022/03/21 01:07:15;;;;;;;63.90;29.25;;;1.60;66.00;;;;;;5017664;28;20033;-51
2022/03/21 01:09:41;;;;;;;64.00;27.30;;;1.60;65.90;;;;;;5018465;28;20466;-53
2022/03/21 01:12:09;;;;;;;58.47;29.33;;;1.50;66.50;;;;;;5016486;28;20041;-52
2022/03/21 01:14:35;;;;;;;67.97;30.70;;;1.50;66.10;;;;;;5017635;28;20057;-53
2022/03/21 01:17:00;;;;;;;68.82;31.42;;;1.60;66.10;;;;;;5018197;28;20049;-53
2022/03/21 01:19:30;;;;;;;75.53;33.22;;;1.50;66.00;;;;;;5008238;28;20452;-53
2022/03/21 01:21:56;;;;;;;75.00;31.80;;;1.40;66.70;;;;;;5008139;28;20474;-53
2022/03/21 01:24:22;;;;;;;72.03;33.58;;;1.40;66.90;;;;;;5007749;28;20081;-52
2022/03/21 01:26:48;;;;;;;66.53;30.20;;;1.40;69.40;;;;;;5007756;28;20065;-52
2022/03/21 01:29:14;;;;;;;66.47;29.95;;;1.30;71.30;;;;;;5015104;28;20060;-52
2022/03/21 01:31:39;;;;;;;59.22;29.45;;;1.40;68.00;;;;;;5027650;28;20105;-52
2022/03/21 01:34:05;;;;;;;67.72;32.10;;;1.40;69.40;;;;;;5027394;28;20033;-53
2022/03/21 01:36:31;;;;;;;73.32;30.60;;;1.30;71.70;;;;;;5027748;28;20076;-52
2022/03/21 01:38:56;;;;;;;75.88;33.67;;;1.20;72.00;;;;;;5027906;28;20036;-52
2022/03/21 01:41:22;;;;;;;72.05;33.67;;;1.20;72.50;;;;;;5027760;28;20027;-53
2022/03/21 01:43:58;;;;;;;74.45;34.13;;;1.00;73.00;;;;;;5027369;28;20045;-52
2022/03/21 01:46:25;;;;;;;73.75;34.53;;;0.90;75.50;;;;;;5027484;28;20455;-53
2022/03/21 01:48:50;;;;;;;65.47;32.63;;;1.00;77.30;;;;;;5027676;28;20109;-53
2022/03/21 01:51:16;;;;;;;77.03;33.40;;;1.00;76.90;;;;;;5027866;28;20100;-52
2022/03/21 01:56:27;;;;;;;76.28;34.15;;;0.90;77.70;;;;;;5020098;28;20112;-53
2022/03/21 01:58:53;;;;;;;76.10;35.53;;;0.90;78.70;;;;;;5007976;28;20021;-52
2022/03/21 02:01:19;;;;;;;72.95;33.95;;;0.70;76.20;;;;;;5008065;28;20018;-53
2022/03/21 02:03:45;;;;;;;69.40;33.65;;;0.80;79.50;;;;;;5005735;28;20030;-51
2022/03/21 02:06:11;;;;;;;84.68;37.20;;;0.80;78.70;;;;;;5006616;28;20550;-53
2022/03/21 02:08:37;;;;;;;84.93;40.60;;;0.70;77.60;;;;;;5017264;28;20042;-53
2022/03/21 02:11:04;;;;;;;94.97;41.13;;;0.60;76.90;;;;;;5024755;28;20515;-53
2022/03/21 02:13:29;;;;;;;88.72;38.67;;;0.50;77.50;;;;;;5010898;28;20022;-53
2022/03/21 02:15:55;;;;;;;92.13;40.25;;;0.40;79.20;;;;;;5020555;28;20392;-52
2022/03/21 02:18:23;;;;;;;96.95;40.65;;;0.40;80.10;;;;;;5027645;28;20032;-52
2022/03/21 02:20:51;;;;;;;98.53;40.67;;;0.30;82.30;;;;;;5008142;28;20045;-55
2022/03/21 02:23:21;;;;;;;98.63;43.08;;;0.30;82.40;;;;;;5007735;28;20026;-52
2022/03/21 02:25:49;;;;;;;98.63;44.95;;;0.20;83.00;;;;;;5007641;28;20485;-51
2022/03/21 02:28:16;;;;;;;98.60;40.70;;;0.30;83.60;;;;;;5007860;28;20018;-54
2022/03/21 02:30:47;;;;;;;82.03;37.72;;;0.20;82.30;;;;;;5007947;28;20120;-53
2022/03/21 02:33:15;;;;;;;79.45;37.03;;;0.40;80.80;;;;;;5031044;28;20030;-52
2022/03/21 02:35:45;;;;;;;76.78;35.13;;;0.30;81.10;;;;;;5031054;28;20496;-52
2022/03/21 02:38:12;;;;;;;81.85;36.85;;;0.20;82.40;;;;;;5030041;28;20494;-53
2022/03/21 02:40:38;;;;;;;86.15;36.42;;;0.10;85.10;;;;;;5031398;28;20053;-52
2022/03/21 02:43:04;;;;;;;84.55;37.22;;;0.00;86.60;;;;;;5030901;28;20084;-52
2022/03/21 02:45:29;;;;;;;85.15;37.42;;;0.00;88.20;;;;;;5030656;28;20457;-51
2022/03/21 02:47:55;;;;;;;83.03;39.15;;;0.10;85.60;;;;;;5030916;28;20025;-53
2022/03/21 02:50:43;;;;;;;84.93;39.28;;;0.10;85.90;;;;;;5031293;28;20034;-52
2022/03/21 02:53:10;;;;;;;83.22;37.50;;;0.00;87.40;;;;;;5030341;28;20034;-52
2022/03/21 02:55:36;;;;;;;85.72;39.58;;;0.00;88.70;;;;;;5030609;28;20029;-52
2022/03/21 02:58:02;;;;;;;97.20;42.33;;;-0.20;90.00;;;;;;5010804;28;20414;-52
2022/03/21 03:00:28;;;;;;;101.63;41.03;;;-0.30;90.60;;;;;;5011135;28;20029;-53
2022/03/21 03:02:54;;;;;;;107.25;43.13;;;-0.50;91.50;;;;;;5010389;28;20277;-53
2022/03/21 03:05:20;;;;;;;106.78;43.00;;;-0.40;92.30;;;;;;5010243;28;20069;-52
2022/03/21 03:07:46;;;;;;;106.40;44.75;;;-0.50;92.70;;;;;;5017014;28;20041;-52
2022/03/21 03:10:12;;;;;;;112.30;45.45;;;-0.50;93.40;;;;;;5030539;28;20036;-54
2022/03/21 03:12:37;;;;;;;121.85;46.45;;;-0.60;93.70;;;;;;5030175;28;20030;-52
2022/03/21 03:15:04;;;;;;;129.50;48.05;;;-0.60;93.90;;;;;;5029903;28;20072;-52
2022/03/21 03:17:30;;;;;;;129.35;50.83;;;-0.60;94.30;;;;;;5030475;28;20025;-50
2022/03/21 03:19:55;;;;;;;135.18;50.47;;;-0.70;95.20;;;;;;5030772;28;20022;-53
2022/03/21 03:22:23;;;;;;;123.22;45.85;;;-0.70;95.30;;;;;;5030094;28;20036;-53
2022/03/21 03:24:50;;;;;;;107.78;43.45;;;-0.70;94.80;;;;;;5029676;28;20057;-52
2022/03/21 03:27:16;;;;;;;118.07;43.42;;;-0.60;94.50;;;;;;5029880;28;20029;-51
2022/03/21 03:29:41;;;;;;;97.65;40.55;;;-0.50;94.90;;;;;;5029031;28;20033;-51
2022/03/21 03:32:08;;;;;;;115.63;43.28;;;-0.50;94.20;;;;;;5029976;28;20048;-52
2022/03/21 03:34:34;;;;;;;;;;;-0.50;94.70;;;;;;5028646;28;20128;-51
2022/03/21 03:37:00;;;;;;;94.85;42.20;;;-0.60;94.40;;;;;;5028440;28;20059;-53
2022/03/21 03:39:27;;;;;;;93.10;40.72;;;-0.60;94.50;;;;;;5029910;28;20025;-52
2022/03/21 03:41:52;;;;;;;98.73;39.73;;;-0.70;95.80;;;;;;5029729;28;20037;-52
2022/03/21 03:44:18;;;;;;;111.55;45.10;;;-0.70;97.60;;;;;;5029109;28;20573;-53
2022/03/21 03:46:44;;;;;;;93.70;41.40;;;-0.90;99.00;;;;;;5028276;28;20025;-53
2022/03/21 03:49:10;;;;;;;93.22;38.67;;;-0.90;98.90;;;;;;5030050;28;20025;-53
2022/03/21 03:51:36;;;;;;;80.82;37.28;;;-0.80;98.60;;;;;;5029591;28;20060;-51
2022/03/21 03:54:02;;;;;;;86.80;39.88;;;-0.80;98.70;;;;;;5022500;28;20227;-53
2022/03/21 03:56:27;;;;;;;91.85;38.72;;;-0.90;99.00;;;;;;5017939;28;20021;-53
2022/03/21 03:58:53;;;;;;;91.22;36.17;;;-0.90;99.60;;;;;;5018912;28;20038;-53
2022/03/21 04:01:19;;;;;;;83.18;36.75;;;-0.90;99.40;;;;;;5018811;28;20040;-53
2022/03/21 04:03:44;;;;;;;89.82;38.80;;;-0.90;99.60;;;;;;5018971;28;20024;-51
2022/03/21 04:06:15;;;;;;;94.78;40.55;;;-0.90;99.40;;;;;;5018458;28;20041;-51
2022/03/21 04:08:41;;;;;;;96.43;41.05;;;-0.80;99.90;;;;;;5015396;28;20489;-52
2022/03/21 04:11:07;;;;;;;90.85;39.72;;;-0.90;99.90;;;;;;5008642;28;20121;-51
2022/03/21 04:13:32;;;;;;;100.13;41.13;;;-1.00;99.90;;;;;;5008443;28;20037;-52
2022/03/21 04:15:58;;;;;;;96.43;41.85;;;-1.00;99.90;;;;;;5009383;28;20034;-54
2022/03/21 04:18:25;;;;;;;93.82;42.25;;;-1.00;99.90;;;;;;5009719;28;20029;-52
2022/03/21 04:20:52;;;;;;;;;;;-1.00;99.90;;;;;;5010409;28;20029;-52
2022/03/21 04:23:18;;;;;;;88.70;43.40;;;-1.00;99.90;;;;;;5006861;28;20364;-54
2022/03/21 04:25:44;;;;;;;96.82;43.25;;;-0.90;99.90;;;;;;5005930;28;20113;-53
2022/03/21 04:28:11;;;;;;;91.70;42.65;;;-0.90;99.90;;;;;;5008309;28;20022;-52
2022/03/21 04:30:44;;;;;;;93.72;42.50;;;-1.10;99.90;;;;;;5014092;28;20033;-51
2022/03/21 04:33:14;;;;;;;89.75;41.97;;;-1.10;99.90;;;;;;5016921;28;20381;-52
2022/03/21 04:35:41;;;;;;;86.35;41.33;;;-1.10;99.90;;;;;;5016399;28;20026;-52
2022/03/21 04:38:13;;;;;;;92.43;42.05;;;-1.10;99.90;;;;;;5018587;28;20018;-52
2022/03/21 04:40:46;;;;;;;77.22;42.30;;;-1.10;99.90;;;;;;5027586;28;20136;-51
2022/03/21 04:43:14;;;;;;;87.30;40.75;;;-1.10;99.90;;;;;;5025366;28;20021;-51
2022/03/21 04:45:45;;;;;;;90.53;41.15;;;-1.10;99.90;;;;;;5026592;28;20029;-53
2022/03/21 04:48:11;;;;;;;96.30;44.20;;;-1.10;99.90;;;;;;5026710;28;20021;-53
2022/03/21 04:50:38;;;;;;;94.32;43.72;;;-1.10;99.90;;;;;;5027122;28;20496;-54
2022/03/21 04:53:06;;;;;;;98.80;45.90;;;-1.10;99.90;;;;;;5026532;28;20037;-52
2022/03/21 04:55:32;;;;;;;115.07;47.28;;;-1.10;99.90;;;;;;5027519;28;20105;-53
2022/03/21 04:57:59;;;;;;;112.38;50.20;;;-1.10;99.90;;;;;;5028181;28;20036;-53
2022/03/21 05:00:25;;;;;;;116.93;51.53;;;-1.10;99.90;;;;;;5028694;28;20029;-54
2022/03/21 05:02:54;;;;;;;123.85;54.90;;;-1.10;99.90;;;;;;5026637;28;20492;-52
2022/03/21 05:05:20;;;;;;;111.60;50.22;;;-1.00;99.90;;;;;;5027840;28;20025;-53
2022/03/21 05:07:46;;;;;;;109.85;51.35;;;-0.90;99.90;;;;;;5026104;28;20373;-52
2022/03/21 05:10:16;;;;;;;114.90;49.47;;;-0.90;99.90;;;;;;5008802;28;20037;-54
2022/03/21 05:12:41;;;;;;;114.63;48.63;;;-0.90;99.90;;;;;;5008195;28;20457;-53
2022/03/21 05:15:08;;;;;;;99.90;48.47;;;-0.90;99.90;;;;;;5007822;28;20044;-53
2022/03/21 05:17:34;;;;;;;122.53;50.37;;;-0.80;99.90;;;;;;5008764;28;20033;-51
2022/03/21 05:20:01;;;;;;;116.07;49.55;;;-0.80;99.90;;;;;;5008300;28;20036;-54
2022/03/21 05:22:27;;;;;;;109.15;45.20;;;-0.80;99.90;;;;;;5008345;28;20029;-54
2022/03/21 05:35:54;;;;;;;116.47;48.53;;;-0.60;99.90;;;;;;5018790;28;20036;-54
2022/03/21 05:38:22;;;;;;;108.22;48.85;;;-0.50;99.90;;;;;;5017740;28;20050;-54
2022/03/21 05:40:48;;;;;;;112.70;47.53;;;-0.40;99.90;;;;;;5017023;28;20056;-53
2022/03/21 05:43:14;;;;;;;109.40;48.10;;;-0.40;99.90;;;;;;5017582;28;20029;-50
2022/03/21 05:45:39;;;;;;;89.70;43.10;;;-0.30;99.90;;;;;;5017616;28;20038;-53
2022/03/21 05:50:50;;;;;;;93.63;43.72;;;-0.10;99.90;;;;;;5018852;28;20064;-53
2022/03/21 05:53:15;;;;;;;97.95;44.88;;;0.00;99.90;;;;;;5016450;28;20425;-52
2022/03/21 05:55:44;;;;;;;104.13;45.03;;;0.10;99.90;;;;;;5017936;28;20464;-54
2022/03/21 05:58:09;;;;;;;96.15;43.35;;;0.10;99.90;;;;;;5019014;28;20108;-53
2022/03/21 06:00:36;;;;;;;110.90;48.20;;;0.10;99.90;;;;;;5016599;28;20105;-53
2022/03/21 06:03:03;;;;;;;114.20;51.25;;;0.20;99.90;;;;;;5016147;28;20626;-54
2022/03/21 06:05:30;;;;;;;;;;;0.30;99.90;;;;;;5016527;28;20983;-53
2022/03/21 06:07:56;;;;;;;153.95;62.17;;;0.40;99.90;;;;;;5022503;28;19932;-52
2022/03/21 06:10:21;;;;;;;146.23;61.53;;;0.50;99.90;;;;;;5018998;28;20481;-53
2022/03/21 06:12:48;;;;;;;109.30;52.05;;;0.60;99.90;;;;;;5022488;28;20022;-53
2022/03/21 06:15:14;;;;;;;103.70;48.70;;;0.60;99.90;;;;;;5019675;28;20045;-54
2022/03/21 06:17:41;;;;;;;118.20;51.00;;;0.70;99.90;;;;;;5020631;28;20614;-53
2022/03/21 06:20:16;;;;;;;;;;;0.80;99.90;;;;;;5021654;28;20503;-53
2022/03/21 06:22:43;;;;;;;104.18;45.42;;;0.90;99.90;;;;;;5020273;28;19913;-53
2022/03/21 06:25:10;;;;;;;106.03;46.40;;;1.10;99.60;;;;;;5020050;28;20058;-53
2022/03/21 06:27:38;;;;;;;108.95;46.15;;;1.20;99.80;;;;;;5021937;28;20026;-54
2022/03/21 06:30:06;;;;;;;105.05;44.45;;;1.30;98.40;;;;;;5020380;28;20547;-53
2022/03/21 06:32:31;;;;;;;109.75;46.63;;;1.40;97.90;;;;;;5021577;28;20032;-54
2022/03/21 06:34:57;;;;;;;98.00;45.53;;;1.50;96.80;;;;;;5019199;28;20029;-54
2022/03/21 06:37:23;;;;;;;92.63;42.40;;;1.60;96.20;;;;;;5030872;28;20540;-52
2022/03/21 06:39:49;;;;;;;90.55;39.08;;;1.70;95.40;;;;;;5019538;28;20117;-53
2022/03/21 06:42:14;;;;;;;94.13;39.67;;;1.80;94.80;;;;;;5010823;28;20112;-54
2022/03/21 06:44:41;;;;;;;85.88;38.55;;;1.90;94.60;;;;;;5009997;28;20393;-53
2022/03/21 06:47:08;;;;;;;86.65;39.60;;;2.00;93.40;;;;;;5011190;28;20069;-54
2022/03/21 06:49:34;;;;;;;82.05;36.95;;;2.20;94.00;;;;;;5011386;28;20088;-51
2022/03/21 06:52:02;;;;;;;78.53;37.75;;;2.40;91.80;;;;;;5019654;28;20056;-54
2022/03/21 06:54:31;;;;;;;86.25;39.53;;;2.50;91.90;;;;;;5030524;28;20049;-53
2022/03/21 06:56:56;;;;;;;80.53;37.92;;;2.60;90.10;;;;;;5030269;28;20032;-53
2022/03/21 06:59:23;;;;;;;74.22;36.58;;;2.70;89.10;;;;;;5030799;28;20026;-54
2022/03/21 07:01:50;;;;;;;87.43;39.70;;;2.80;86.30;;;;;;5030022;28;20069;-52
2022/03/21 07:04:16;;;;;;;89.13;38.55;;;3.00;86.80;;;;;;5030069;28;20033;-52
2022/03/21 07:06:42;;;;;;;79.97;37.95;;;3.10;88.60;;;;;;5030153;28;20041;-53
2022/03/21 07:09:08;;;;;;;73.78;34.70;;;3.30;84.30;;;;;;5028185;28;20060;-51
2022/03/21 07:11:35;;;;;;;62.28;33.55;;;3.50;85.50;;;;;;5010425;28;20057;-52
2022/03/21 07:14:01;;;;;;;72.30;35.60;;;3.60;82.80;;;;;;5010176;28;20397;-53
2022/03/21 07:16:27;;;;;;;65.93;31.65;;;3.70;82.20;;;;;;5009909;28;20108;-54
2022/03/21 07:18:53;;;;;;;60.22;29.60;;;3.80;80.90;;;;;;5008790;28;20556;-52
2022/03/21 07:21:19;;;;;;;61.70;30.15;;;4.00;74.20;;;;;;5010402;28;20065;-53
2022/03/21 07:23:45;;;;;;;67.88;30.75;;;4.10;74.80;;;;;;5009552;28;20053;-53
2022/03/21 07:26:12;;;;;;;60.47;29.45;;;4.30;74.90;;;;;;5010372;28;20033;-53
2022/03/21 07:28:38;;;;;;;59.85;28.85;;;4.50;75.00;;;;;;5010454;28;20033;-53
2022/03/21 07:31:04;;;;;;;54.47;27.85;;;4.70;74.30;;;;;;5010570;28;20382;-52
2022/03/21 07:33:29;;;;;;;53.78;27.55;;;4.90;70.60;;;;;;5010081;28;20549;-51
2022/03/21 07:35:55;;;;;;;53.15;26.85;;;5.10;72.20;;;;;;5009728;28;20396;-52
2022/03/21 07:38:22;;;;;;;49.88;23.02;;;5.30;68.60;;;;;;5010753;28;20208;-52
2022/03/21 07:40:49;;;;;;;49.08;23.63;;;5.40;64.40;;;;;;5010347;28;20072;-53
2022/03/21 07:43:15;;;;;;;41.05;22.25;;;5.60;65.70;;;;;;5009568;28;20037;-52
2022/03/21 07:48:27;;;;;;;40.92;23.48;;;5.80;62.90;;;;;;5010127;28;20060;-51
2022/03/21 07:50:56;;;;;;;43.88;22.80;;;5.90;61.40;;;;;;5010295;28;20481;-51
2022/03/21 07:53:21;;;;;;;42.53;22.38;;;5.90;59.90;;;;;;5009323;28;20054;-53
2022/03/21 07:55:47;;;;;;;44.03;22.25;;;6.10;59.80;;;;;;5010871;28;20084;-54
2022/03/21 07:58:13;;;;;;;48.13;23.50;;;6.10;61.30;;;;;;5028430;28;20026;-52
2022/03/21 08:00:41;;;;;;;42.33;22.17;;;6.20;58.90;;;;;;5029729;28;20163;-51
2022/03/21 08:03:11;;;;;;;41.08;22.55;;;6.40;61.90;;;;;;5028727;28;20033;-51
2022/03/21 08:05:37;;;;;;;46.38;23.92;;;6.60;61.50;;;;;;5029044;28;20040;-53
2022/03/21 08:08:03;;;;;;;45.55;22.02;;;6.80;60.60;;;;;;5028997;28;20017;-52
2022/03/21 08:10:29;;;;;;;41.25;23.85;;;7.00;59.70;;;;;;5017513;28;20072;-53
2022/03/21 08:12:56;;;;;;;50.38;22.92;;;7.10;58.40;;;;;;5009037;28;20073;-52
2022/03/21 08:15:22;;;;;;;40.00;22.48;;;7.20;56.90;;;;;;5009405;28;20033;-52
2022/03/21 08:18:00;;;;;;;40.30;22.20;;;7.50;57.60;;;;;;5008048;28;20057;-54
2022/03/21 08:20:33;;;;;;;40.15;19.88;;;7.80;56.00;;;;;;5009409;28;20553;-52
2022/03/21 08:23:00;;;;;;;34.75;19.02;;;8.00;56.80;;;;;;5007893;28;20034;-52
2022/03/21 08:25:27;;;;;;;37.85;19.80;;;8.00;55.50;;;;;;5008714;28;20053;-53
2022/03/21 08:27:54;;;;;;;33.83;18.17;;;8.40;54.60;;;;;;5009509;28;20449;-51
2022/03/21 08:30:19;;;;;;;36.05;19.35;;;9.20;53.10;;;;;;5008865;28;20034;-52
2022/03/21 08:32:46;;;;;;;41.55;20.98;;;9.60;50.50;;;;;;5008931;28;20112;-53
2022/03/21 08:35:12;;;;;;;36.10;20.33;;;9.40;50.70;;;;;;5007246;28;20041;-52
2022/03/21 08:37:39;;;;;;;39.63;19.85;;;9.90;51.50;;;;;;5008896;28;20072;-53
2022/03/21 08:40:06;;;;;;;39.10;20.55;;;9.90;50.90;;;;;;5007893;28;20105;-53
2022/03/21 08:42:33;;;;;;;36.63;20.38;;;9.70;51.90;;;;;;5008823;28;20030;-52
2022/03/21 08:44:59;;;;;;;39.38;19.90;;;10.60;49.70;;;;;;5008529;28;20061;-52
2022/03/21 08:47:25;;;;;;;35.80;18.70;;;10.30;50.10;;;;;;5008663;28;20029;-52
2022/03/21 08:49:51;;;;;;;34.85;18.58;;;10.50;47.70;;;;;;5008633;28;20377;-52
2022/03/21 08:52:19;;;;;;;35.78;19.70;;;11.00;48.20;;;;;;5008941;28;20017;-53
2022/03/21 08:54:45;;;;;;;33.85;19.38;;;10.70;48.90;;;;;;5008312;28;20832;-52
2022/03/21 08:57:11;;;;;;;38.00;19.80;;;11.10;48.10;;;;;;5021580;28;20053;-53
2022/03/21 08:59:37;;;;;;;37.13;20.08;;;11.50;46.60;;;;;;5028448;28;20088;-53
2022/03/21 09:02:04;;;;;;;30.55;18.52;;;11.90;47.40;;;;;;5028388;28;20037;-52
2022/03/21 09:04:30;;;;;;;36.03;19.38;;;13.00;44.00;;;;;;5028058;28;20037;-54
2022/03/21 09:06:56;;;;;;;39.75;20.17;;;12.20;44.30;;;;;;5027936;28;20037;-52
2022/03/21 09:09:21;;;;;;;34.53;17.08;;;12.60;43.20;;;;;;5025706;28;20026;-52
2022/03/21 09:11:47;;;;;;;30.85;17.10;;;12.40;46.40;;;;;;5008650;28;20030;-53
2022/03/21 09:14:14;;;;;;;30.55;17.67;;;12.90;43.60;;;;;;5008203;28;20022;-53
2022/03/21 09:16:42;;;;;;;33.80;17.80;;;13.20;42.00;;;;;;5008388;28;20403;-53
2022/03/21 09:19:10;;;;;;;32.42;18.02;;;13.10;41.30;;;;;;5008877;28;20266;-53
2022/03/21 09:21:37;;;;;;;28.58;16.90;;;12.80;42.50;;;;;;5008694;28;20145;-51
2022/03/21 09:24:04;;;;;;;30.80;17.40;;;13.00;40.80;;;;;;5008023;28;20077;-54
2022/03/21 09:26:30;;;;;;;32.95;18.48;;;13.10;41.80;;;;;;5008125;28;20041;-52
2022/03/21 09:29:00;;;;;;;34.15;18.02;;;13.20;42.40;;;;;;5008548;28;20032;-52
2022/03/21 09:31:27;;;;;;;34.05;20.00;;;13.30;40.30;;;;;;5007352;28;20072;-52
2022/03/21 09:33:53;;;;;;;30.53;19.30;;;13.50;40.90;;;;;;5008038;28;20026;-53
2022/03/21 09:36:20;;;;;;;31.48;20.00;;;13.60;41.20;;;;;;5008186;28;20038;-52
2022/03/21 09:38:45;;;;;;;36.97;21.80;;;13.90;40.50;;;;;;5008177;28;20045;-52
2022/03/21 09:41:17;;;;;;;39.78;21.77;;;14.60;41.40;;;;;;5011012;28;20029;-53
2022/03/21 09:43:43;;;;;;;37.30;20.70;;;13.80;40.40;;;;;;5011972;28;20560;-51
2022/03/21 09:46:09;;;;;;;34.20;21.67;;;13.80;40.60;;;;;;5012213;28;20828;-53
2022/03/21 09:48:35;;;;;;;37.38;21.23;;;13.60;40.60;;;;;;5012446;28;20025;-51
2022/03/21 09:51:04;;;;;;;36.60;21.58;;;13.70;43.20;;;;;;5012535;28;20465;-53
2022/03/21 09:53:30;;;;;;;33.00;19.63;;;13.60;43.50;;;;;;5011913;28;20055;-53
2022/03/21 09:55:56;;;;;;;36.60;19.35;;;14.20;41.30;;;;;;5014706;28;20026;-54
2022/03/21 09:58:22;;;;;;;34.95;19.73;;;13.60;41.50;;;;;;5031835;28;20032;-52
2022/03/21 10:00:52;;;;;;;30.20;18.13;;;14.30;41.50;;;;;;5032578;28;20195;-50
2022/03/21 10:03:18;;;;;;;27.98;16.35;;;14.00;39.90;;;;;;5031767;28;20116;-53
2022/03/21 10:05:46;;;;;;;29.77;16.35;;;13.80;39.60;;;;;;5031189;28;20191;-53
2022/03/21 10:08:27;;;;;;;29.38;17.30;;;14.40;37.80;;;;;;5031843;28;20242;-52
2022/03/21 10:10:57;;;;;;;27.73;16.33;;;14.20;40.40;;;;;;5016486;28;20084;-52
2022/03/21 10:13:25;;;;;;;28.02;16.35;;;14.30;40.70;;;;;;5011255;28;20033;-51
2022/03/21 10:16:15;;;;;;;22.45;13.00;;;14.20;40.50;;;;;;5011456;28;20107;-52
2022/03/21 10:18:53;;;;;;;26.35;14.85;;;14.50;36.80;;;;;;5011942;28;20033;-51
2022/03/21 10:21:21;;;;;;;37.65;15.65;;;15.10;36.10;;;;;;5011293;28;20437;-53
2022/03/21 10:24:07;;;;;;;25.52;14.27;;;14.80;35.80;;;;;;5011032;28;20041;-52
2022/03/21 10:26:40;;;;;;;26.38;15.15;;;15.30;36.20;;;;;;5011249;28;20042;-52
2022/03/21 10:29:10;;;;;;;26.20;15.48;;;15.20;35.90;;;;;;5011700;28;20033;-53
2022/03/21 10:31:36;;;;;;;22.35;13.55;;;14.80;36.30;;;;;;5011297;28;20034;-52
2022/03/21 10:34:05;;;;;;;22.27;13.30;;;14.70;37.20;;;;;;5011126;28;20030;-53
2022/03/21 10:36:31;;;;;;;24.52;14.43;;;15.80;36.90;;;;;;5009904;28;20549;-52
2022/03/21 10:39:12;;;;;;;22.80;12.98;;;15.90;35.00;;;;;;5009501;28;20678;-51
2022/03/21 10:41:39;;;;;;;22.42;13.85;;;15.40;33.70;;;;;;5009608;28;20029;-52
2022/03/21 10:44:06;;;;;;;23.52;13.90;;;15.30;36.60;;;;;;5009155;28;20516;-51
2022/03/21 10:46:32;;;;;;;;;;;16.30;35.20;;;;;;5010714;28;20049;-51
2022/03/21 10:49:09;;;;;;;19.88;12.13;;;15.90;34.50;;;;;;5010607;28;20004;-51
2022/03/21 10:51:53;;;;;;;18.95;11.82;;;15.80;34.30;;;;;;5010197;28;20030;-52
2022/03/21 10:54:57;;;;;;;22.02;12.82;;;16.10;33.10;;;;;;5010749;28;20030;-51
2022/03/21 10:57:38;;;;;;;22.15;13.48;;;15.60;33.70;;;;;;4944859;29;20503;-52
2022/03/21 11:00:13;;;;;;;20.02;11.68;;;15.80;36.70;;;;;;5006077;28;20065;-53
2022/03/21 11:03:00;;;;;;;20.95;12.25;;;16.40;33.80;;;;;;5010821;28;20026;-52
2022/03/21 11:05:28;;;;;;;26.00;12.83;;;16.50;32.80;;;;;;5010665;28;20250;-53
2022/03/21 11:07:54;;;;;;;18.35;11.35;;;16.70;34.30;;;;;;5018490;28;20136;-53
2022/03/21 11:10:21;;;;;;;22.75;12.60;;;17.00;32.00;;;;;;5019649;28;20097;-52
2022/03/21 11:12:47;;;;;;;18.42;9.68;;;17.00;33.20;;;;;;5010772;28;20037;-52
2022/03/21 11:15:14;;;;;;;17.05;11.70;;;16.90;32.20;;;;;;5114895;23;20057;-51
2022/03/21 11:17:41;;;;;;;22.30;11.23;;;16.70;33.00;;;;;;5009570;28;20041;-52
2022/03/21 11:20:09;;;;;;;13.35;8.95;;;16.60;33.00;;;;;;5010366;28;20030;-52
2022/03/21 11:22:36;;;;;;;14.80;7.95;;;16.30;31.90;;;;;;5009890;28;20036;-53
2022/03/21 11:25:02;;;;;;;;;;;16.70;30.90;;;;;;5010319;28;20077;-51
2022/03/21 11:28:04;;;;;;;16.30;8.93;;;16.60;30.70;;;;;;5010003;28;19944;-51
2022/03/21 11:30:41;;;;;;;17.42;9.38;;;16.60;31.70;;;;;;5010157;28;20029;-51
2022/03/21 11:33:20;;;;;;;14.93;9.35;;;16.90;37.40;;;;;;5009168;28;20495;-52
2022/03/21 11:36:07;;;;;;;19.10;10.23;;;17.40;31.70;;;;;;5009742;28;20101;-53
2022/03/21 11:39:00;;;;;;;17.08;9.85;;;17.40;29.80;;;;;;5009638;28;20034;-51
2022/03/21 11:41:28;;;;;;;20.20;9.95;;;17.40;32.90;;;;;;5009987;28;20080;-52
2022/03/21 11:44:06;;;;;;;16.38;10.18;;;17.60;31.00;;;;;;5009124;28;20168;-51
2022/03/21 11:46:38;;;;;;;16.45;9.15;;;17.50;30.70;;;;;;4991833;28;20474;-51
2022/03/21 11:49:25;;;;;;;16.20;9.45;;;17.40;29.60;;;;;;5009757;28;20054;-51
2022/03/21 11:51:58;;;;;;;19.75;10.88;;;17.10;32.40;;;;;;5009293;28;20037;-51
2022/03/21 11:54:30;;;;;;;18.55;10.13;;;17.20;33.10;;;;;;4991496;28;20113;-51
2022/03/21 11:57:04;;;;;;;14.45;10.52;;;17.00;30.40;;;;;;4998618;28;20031;-51
2022/03/21 11:59:33;;;;;;;17.50;11.40;;;17.20;33.80;;;;;;4972580;28;20030;-50
2022/03/21 12:02:20;;;;;;;18.20;11.18;;;17.00;31.10;;;;;;4989445;28;20030;-51
2022/03/21 12:04:59;;;;;;;17.15;10.20;;;17.10;31.40;;;;;;4987705;28;20464;-53
2022/03/21 12:07:25;;;;;;;21.98;10.55;;;16.90;32.20;;;;;;4989655;28;20026;-52
2022/03/21 12:09:55;;;;;;;15.50;9.23;;;17.00;30.60;;;;;;4989520;28;20366;-52
2022/03/21 12:12:51;;;;;;;19.08;9.85;;;17.10;30.00;;;;;;4989521;28;20486;-52
2022/03/21 12:15:49;;;;;;;16.45;8.85;;;17.10;35.00;;;;;;4981977;28;20042;-51
2022/03/21 12:18:14;;;;;;;16.90;9.93;;;17.60;33.10;;;;;;4971969;28;20030;-52
2022/03/21 12:20:48;;;;;;;16.50;8.85;;;17.00;29.40;;;;;;4989461;28;20026;-52
2022/03/21 12:23:23;;;;;;;19.95;10.90;;;16.70;30.00;;;;;;4988798;28;20278;-53
2022/03/21 12:25:52;;;;;;;18.98;10.90;;;16.30;29.70;;;;;;4988835;28;20145;-50
2022/03/21 12:31:29;;;;;;;20.73;11.13;;;16.50;30.90;;;;;;4989611;28;20113;-52
2022/03/21 12:34:50;;;;;;;20.13;11.80;;;16.80;31.00;;;;;;4988028;28;20045;-51
2022/03/21 12:37:40;;;;;;;16.70;10.57;;;16.90;30.90;;;;;;4911226;29;20032;-51
2022/03/21 12:40:10;;;;;;;22.10;11.45;;;17.00;31.30;;;;;;4969010;28;20029;-50
2022/03/21 12:42:42;;;;;;;21.75;12.40;;;17.50;33.70;;;;;;4987718;28;20033;-52
2022/03/21 12:45:08;;;;;;;18.13;11.50;;;17.10;30.50;;;;;;4970504;28;20034;-53
2022/03/21 12:47:37;;;;;;;19.48;10.93;;;17.10;31.60;;;;;;4988172;28;20036;-51
2022/03/21 12:50:05;;;;;;;17.38;10.02;;;16.20;29.60;;;;;;4988396;28;20019;-50
2022/03/21 12:52:34;;;;;;;21.25;9.35;;;16.80;31.00;;;;;;4985842;28;20018;-50
2022/03/21 12:55:00;;;;;;;18.35;10.63;;;16.60;30.20;;;;;;4988271;28;20033;-51
2022/03/21 12:57:27;;;;;;;16.48;9.95;;;17.00;31.40;;;;;;4983577;28;20031;-50
2022/03/21 13:00:14;;;;;;;17.60;9.73;;;17.20;31.10;;;;;;4979395;28;20033;-50
2022/03/21 13:02:40;;;;;;;15.98;10.88;;;16.80;29.90;;;;;;4986516;28;20025;-50